createdAt,value
2022-11-16T00:02:22.009Z,99876.38
2022-11-16T00:05:28.104Z,99868.22
2022-11-16T00:08:31.034Z,99870.00
2022-11-16T00:11:33.253Z,99861.31
2022-11-16T00:14:35.393Z,99858.25
2022-11-16T00:17:37.261Z,99855.25
2022-11-16T00:20:39.393Z,99853.91
2022-11-16T00:23:41.206Z,99851.44
2022-11-16T00:26:43.294Z,99848.00
2022-11-16T00:29:45.126Z,99849.13
2022-11-16T00:32:46.942Z,99845.66
2022-11-16T00:35:48.732Z,99839.72
2022-11-16T00:38:51.988Z,99838.84
2022-11-16T00:41:53.811Z,99827.41
2022-11-16T00:44:55.610Z,99827.91
2022-11-16T00:48:00.487Z,99817.37
2022-11-16T00:51:02.677Z,99815.97
2022-11-16T00:54:05.293Z,99795.00
2022-11-16T00:57:07.068Z,99810.28
2022-11-16T01:00:09.801Z,99810.78
2022-11-16T01:03:11.719Z,99794.66
2022-11-16T01:06:14.059Z,99801.63
2022-11-16T01:09:15.820Z,99794.97
2022-11-16T01:12:17.678Z,99798.53
2022-11-16T01:15:20.157Z,99785.59
2022-11-16T01:18:21.983Z,99795.91
2022-11-16T01:21:24.214Z,99786.13
2022-11-16T01:24:26.358Z,99781.78
2022-11-16T01:27:29.022Z,99774.66
2022-11-16T01:30:30.882Z,99770.44
2022-11-16T01:33:32.694Z,99767.53
2022-11-16T01:36:36.697Z,99748.87
2022-11-16T01:39:38.526Z,99758.50
2022-11-16T01:42:40.736Z,99753.44
2022-11-16T01:45:42.631Z,99750.88
2022-11-16T01:48:44.454Z,99741.63
2022-11-16T01:51:47.544Z,99737.38
2022-11-16T01:54:50.149Z,99730.50
2022-11-16T01:57:51.973Z,99738.34
2022-11-16T02:00:53.820Z,99718.50
2022-11-16T02:03:55.680Z,99720.59
2022-11-16T02:06:57.478Z,99719.22
2022-11-16T02:10:10.761Z,99709.22
2022-11-16T02:13:19.266Z,99717.88
2022-11-16T02:16:21.087Z,99715.16
2022-11-16T02:19:38.011Z,99712.13
2022-11-16T02:22:53.128Z,99709.84
2022-11-16T02:26:13.808Z,99703.06
2022-11-16T02:29:38.622Z,99693.53
2022-11-16T02:32:40.348Z,99680.41
2022-11-16T02:35:42.147Z,99684.06
2022-11-16T02:38:46.554Z,99696.53
2022-11-16T02:41:48.371Z,99682.47
2022-11-16T02:44:50.351Z,99679.50
2022-11-16T02:47:52.396Z,99687.25
2022-11-16T02:50:54.315Z,99668.59
2022-11-16T02:54:00.396Z,99677.03
2022-11-16T02:57:02.189Z,99660.28
2022-11-16T03:00:04.701Z,99658.09
2022-11-16T03:03:12.502Z,99659.78
2022-11-16T03:06:16.801Z,99649.44
2022-11-16T03:09:19.663Z,99648.41
2022-11-16T03:12:24.384Z,99649.84
2022-11-16T03:15:26.294Z,99651.37
2022-11-16T03:18:29.062Z,99656.13
2022-11-16T03:21:33.245Z,99644.81
2022-11-16T03:24:35.029Z,99641.13
2022-11-16T03:27:59.877Z,99642.37
2022-11-16T03:31:03.321Z,99637.91
2022-11-16T03:34:06.797Z,99638.75
2022-11-16T03:37:08.622Z,99629.56
2022-11-16T03:40:10.535Z,99633.13
2022-11-16T03:43:12.312Z,99626.41
2022-11-16T03:46:14.365Z,99619.28
2022-11-16T03:49:16.280Z,99609.84
2022-11-16T03:52:18.364Z,99613.63
2022-11-16T03:55:20.184Z,99605.91
2022-11-16T03:58:21.987Z,99609.34
2022-11-16T04:01:23.834Z,99605.03
2022-11-16T04:04:44.468Z,99601.53
2022-11-16T04:08:06.352Z,99602.22
2022-11-16T04:11:30.711Z,99595.50
2022-11-16T04:14:51.395Z,99593.91
2022-11-16T04:18:11.860Z,99581.50
2022-11-16T04:21:36.464Z,99577.97
2022-11-16T04:24:38.770Z,99574.97
2022-11-16T04:27:58.925Z,99569.88
2022-11-16T04:31:19.654Z,99572.13
2022-11-16T04:34:40.063Z,99573.72
2022-11-16T04:37:52.690Z,99570.81
2022-11-16T04:40:54.635Z,99572.13
2022-11-16T04:43:57.300Z,99550.34
2022-11-16T04:47:08.212Z,99567.91
2022-11-16T04:50:10.181Z,99562.19
2022-11-16T04:53:12.001Z,99555.00
2022-11-16T04:56:13.848Z,99561.22
2022-11-16T04:59:15.747Z,99560.78
2022-11-16T05:02:17.613Z,99553.09
2022-11-16T05:05:19.517Z,99551.13
2022-11-16T05:08:21.389Z,99561.97
2022-11-16T05:11:23.798Z,99561.31
2022-11-16T05:14:25.652Z,99555.09
2022-11-16T05:17:27.951Z,99546.50
2022-11-16T05:20:48.641Z,99551.63
2022-11-16T05:24:09.057Z,99551.84
2022-11-16T05:27:12.402Z,99549.50
2022-11-16T05:30:14.188Z,99550.56
2022-11-16T05:33:17.917Z,99546.19
2022-11-16T05:36:19.728Z,99537.72
2022-11-16T05:39:21.737Z,99533.69
2022-11-16T05:42:23.622Z,99522.22
2022-11-16T05:45:25.410Z,99518.78
2022-11-16T05:48:27.264Z,99519.78
2022-11-16T05:51:29.260Z,99525.69
2022-11-16T05:54:31.420Z,99525.19
2022-11-16T05:57:33.509Z,99510.28
2022-11-16T06:00:35.326Z,99501.94
2022-11-16T06:03:37.294Z,99499.53
2022-11-16T06:06:39.394Z,99500.22
2022-11-16T06:09:41.322Z,99500.06
2022-11-16T06:12:43.149Z,99495.91
2022-11-16T06:15:50.390Z,99502.09
2022-11-16T06:18:52.241Z,99494.47
2022-11-16T06:21:54.046Z,99499.66
2022-11-16T06:24:55.962Z,99504.66
2022-11-16T06:27:58.230Z,99503.25
2022-11-16T06:31:00.094Z,99507.44
2022-11-16T06:34:01.929Z,99513.78
2022-11-16T06:37:05.556Z,99506.53
2022-11-16T06:40:07.718Z,99506.84
2022-11-16T06:43:09.571Z,99502.69
2022-11-16T06:46:11.458Z,99499.84
2022-11-16T06:49:13.419Z,99496.47
2022-11-16T06:52:15.244Z,99485.75
2022-11-16T06:55:17.156Z,99482.91
2022-11-16T06:58:18.965Z,99489.22
2022-11-16T07:01:20.947Z,99473.25
2022-11-16T07:04:22.972Z,99474.38
2022-11-16T07:07:24.818Z,99482.16
2022-11-16T07:10:26.644Z,99466.00
2022-11-16T07:13:28.441Z,99459.53
2022-11-16T07:16:30.359Z,99466.94
2022-11-16T07:19:32.318Z,99473.84
2022-11-16T07:22:34.159Z,99471.16
2022-11-16T07:25:36.023Z,99471.38
2022-11-16T07:28:39.980Z,99474.03
2022-11-16T07:31:45.493Z,99452.84
2022-11-16T07:34:47.375Z,99460.31
2022-11-16T07:37:49.253Z,99449.66
2022-11-16T07:40:51.183Z,99457.97
2022-11-16T07:43:54.528Z,99461.31
2022-11-16T07:46:56.680Z,99446.72
2022-11-16T07:49:58.568Z,99454.31
2022-11-16T07:53:00.404Z,99454.06
2022-11-16T07:56:02.381Z,99447.38
2022-11-16T07:59:06.003Z,99448.94
2022-11-16T08:02:09.558Z,99439.63
2022-11-16T08:05:11.759Z,99431.75
2022-11-16T08:08:13.796Z,99433.34
2022-11-16T08:11:15.895Z,99429.22
2022-11-16T08:14:19.409Z,99423.72
2022-11-16T08:17:21.309Z,99430.47
2022-11-16T08:20:25.959Z,99431.19
2022-11-16T08:23:31.154Z,99431.50
2022-11-16T08:26:33.013Z,99438.94
2022-11-16T08:29:34.819Z,99428.56
2022-11-16T08:32:36.805Z,99426.75
2022-11-16T08:35:38.666Z,99430.16
2022-11-16T08:38:40.768Z,99424.44
2022-11-16T08:41:44.330Z,99426.91
2022-11-16T08:44:47.322Z,99426.28
2022-11-16T08:47:49.198Z,99420.25
2022-11-16T08:51:15.870Z,99422.41
2022-11-16T08:54:13.018Z,99419.81
2022-11-16T08:57:14.857Z,99420.06
2022-11-16T09:00:17.152Z,99413.47
2022-11-16T09:03:19.064Z,99420.97
2022-11-16T09:06:21.119Z,99417.44
2022-11-16T09:09:23.375Z,99412.66
2022-11-16T09:12:25.462Z,99410.69
2022-11-16T09:15:28.148Z,99393.69
2022-11-16T09:18:30.600Z,99402.47
2022-11-16T09:21:32.735Z,99403.34
2022-11-16T09:24:34.722Z,99401.97
2022-11-16T09:27:37.025Z,99406.56
2022-11-16T09:30:38.867Z,99406.50
2022-11-16T09:33:40.853Z,99412.00
2022-11-16T09:36:42.925Z,99402.12
2022-11-16T09:39:44.852Z,99398.59
2022-11-16T09:42:52.907Z,99389.44
2022-11-16T09:45:54.852Z,99395.16
2022-11-16T09:48:56.853Z,99377.78
2022-11-16T09:52:00.495Z,99376.81
2022-11-16T09:55:04.081Z,99375.44
2022-11-16T09:58:08.310Z,99373.91
2022-11-16T10:01:25.727Z,99376.97
2022-11-16T10:04:38.387Z,99370.63
2022-11-16T10:07:50.550Z,99368.22
2022-11-16T10:10:55.434Z,99358.13
2022-11-16T10:14:05.521Z,99351.13
2022-11-16T10:17:26.194Z,99340.66
2022-11-16T10:20:30.813Z,99341.28
2022-11-16T10:23:51.917Z,99343.50
2022-11-16T10:26:55.256Z,99322.44
2022-11-16T10:30:00.151Z,99325.94
2022-11-16T10:33:10.954Z,99324.56
2022-11-16T10:36:14.020Z,99317.19
2022-11-16T10:39:17.170Z,99319.53
2022-11-16T10:42:21.204Z,99314.78
2022-11-16T10:45:34.045Z,99311.41
2022-11-16T10:48:42.562Z,99311.38
2022-11-16T10:51:44.438Z,99309.84
2022-11-16T10:54:48.619Z,99303.56
2022-11-16T10:57:58.772Z,99301.63
2022-11-16T11:01:00.830Z,99298.25
2022-11-16T11:04:11.888Z,99282.56
2022-11-16T11:07:24.677Z,99293.22
2022-11-16T11:10:34.348Z,99275.91
2022-11-16T11:13:36.609Z,99268.13
2022-11-16T11:16:38.883Z,99245.91
2022-11-16T11:19:41.075Z,99259.53
2022-11-16T11:22:56.170Z,99262.13
2022-11-16T11:25:58.718Z,99259.41
2022-11-16T11:29:00.677Z,99249.13
2022-11-16T11:32:14.620Z,99247.13
2022-11-16T11:35:25.683Z,99242.44
2022-11-16T11:38:27.533Z,99238.72
2022-11-16T11:41:32.878Z,99239.69
2022-11-16T11:44:37.819Z,99232.09
2022-11-16T11:48:00.267Z,99227.50
2022-11-16T11:51:14.173Z,99226.72
2022-11-16T11:54:19.039Z,99214.34
2022-11-16T11:57:22.188Z,99213.75
2022-11-16T12:00:26.376Z,99219.25
2022-11-16T12:03:46.449Z,99210.09
2022-11-16T12:07:00.740Z,99217.75
2022-11-16T12:10:05.867Z,99218.72
2022-11-16T12:13:26.502Z,99221.97
2022-11-16T12:16:28.382Z,99213.38
2022-11-16T12:19:36.274Z,99207.28
2022-11-16T12:23:02.600Z,99208.78
2022-11-16T12:26:11.761Z,99210.66
2022-11-16T12:29:29.219Z,99206.09
2022-11-16T12:32:54.432Z,99204.28
2022-11-16T12:36:03.583Z,99198.06
2022-11-16T12:39:08.686Z,99200.03
2022-11-16T12:42:13.642Z,99196.59
2022-11-16T12:45:29.101Z,99192.78
2022-11-16T12:49:00.428Z,99189.06
2022-11-16T12:52:06.239Z,99192.44
2022-11-16T12:58:45.297Z,99180.41
2022-11-16T13:02:05.298Z,99183.78
2022-11-16T13:05:12.841Z,99183.31
2022-11-16T13:08:17.239Z,99178.87
2022-11-16T13:11:19.330Z,99181.00
2022-11-16T13:14:24.522Z,99175.63
2022-11-16T13:17:31.413Z,99179.94
2022-11-16T13:20:36.051Z,99174.09
2022-11-16T13:23:46.294Z,99183.78
2022-11-16T13:26:56.744Z,99178.87
2022-11-16T13:30:16.132Z,99180.50
2022-11-16T13:33:27.861Z,99176.25
2022-11-16T13:36:32.923Z,99173.59
2022-11-16T13:39:52.802Z,99172.84
2022-11-16T13:42:57.721Z,99172.94
2022-11-16T13:45:59.658Z,99170.59
2022-11-16T13:49:01.585Z,99178.72
2022-11-16T13:52:22.783Z,99184.59
2022-11-16T13:55:30.042Z,99172.13
2022-11-16T13:58:32.098Z,99158.38
2022-11-16T14:01:53.177Z,99165.66
2022-11-16T14:04:56.208Z,99166.38
2022-11-16T14:07:58.028Z,99159.19
2022-11-16T14:11:00.139Z,99165.31
2022-11-16T14:14:05.864Z,99157.84
2022-11-16T14:17:07.730Z,99154.00
2022-11-16T14:20:10.638Z,99150.69
2022-11-16T14:23:18.592Z,99151.25
2022-11-16T14:26:26.499Z,99150.06
2022-11-16T14:29:47.151Z,99150.44
2022-11-16T14:32:55.315Z,99138.22
2022-11-16T14:35:57.230Z,99135.69
2022-11-16T14:39:00.816Z,99142.19
2022-11-16T14:42:18.809Z,99135.75
2022-11-16T14:45:24.860Z,99146.69
2022-11-16T14:48:26.697Z,99138.91
2022-11-16T14:51:32.235Z,99139.37
2022-11-16T14:54:38.665Z,99141.41
2022-11-16T14:57:40.520Z,99140.97
2022-11-16T15:00:42.494Z,99131.19
2022-11-16T15:03:54.739Z,99130.72
2022-11-16T15:06:57.888Z,99125.66
2022-11-16T15:09:59.812Z,99116.91
2022-11-16T15:13:01.727Z,99117.78
2022-11-16T15:16:16.971Z,99121.88
2022-11-16T15:19:18.912Z,99114.72
2022-11-16T15:22:20.763Z,99109.47
2022-11-16T15:25:24.170Z,99115.44
2022-11-16T15:28:26.865Z,99105.62
2022-11-16T15:31:29.819Z,99110.50
2022-11-16T15:34:32.792Z,99111.16
2022-11-16T15:37:34.831Z,99110.47
2022-11-16T15:40:36.706Z,99107.44
2022-11-16T15:43:45.443Z,99114.00
2022-11-16T15:46:57.374Z,99108.47
2022-11-16T15:49:59.215Z,99111.09
2022-11-16T15:53:01.027Z,99108.38
2022-11-16T15:56:03.577Z,99105.44
2022-11-16T15:59:12.000Z,99104.06
2022-11-16T16:02:18.163Z,99116.97
2022-11-16T16:05:23.971Z,99105.66
2022-11-16T16:08:27.731Z,99103.34
2022-11-16T16:11:29.605Z,99099.59
2022-11-16T16:14:31.476Z,99092.22
2022-11-16T16:17:33.417Z,99090.28
2022-11-16T16:20:35.256Z,99092.47
2022-11-16T16:23:44.280Z,99094.37
2022-11-16T16:26:46.146Z,99095.97
2022-11-16T16:29:48.776Z,99095.03
2022-11-16T16:32:50.667Z,99094.81
2022-11-16T16:35:52.604Z,99105.66
2022-11-16T16:38:54.579Z,99099.38
2022-11-16T16:41:56.446Z,99095.84
2022-11-16T16:44:59.027Z,99093.06
2022-11-16T16:48:00.988Z,99085.47
2022-11-16T16:51:02.864Z,99095.13
2022-11-16T16:54:04.672Z,99094.91
2022-11-16T16:57:06.516Z,99096.28
2022-11-16T17:00:09.749Z,99092.03
2022-11-16T17:03:11.699Z,99089.62
2022-11-16T17:06:14.013Z,99089.91
2022-11-16T17:09:15.898Z,99082.34
2022-11-16T17:12:17.765Z,99087.25
2022-11-16T17:15:19.776Z,99078.09
2022-11-16T17:18:22.016Z,99072.25
2022-11-16T17:21:24.014Z,99092.22
2022-11-16T17:24:25.873Z,99073.31
2022-11-16T17:27:27.730Z,99072.88
2022-11-16T17:30:29.732Z,99080.38
2022-11-16T17:33:35.264Z,99080.00
2022-11-16T17:36:37.331Z,99078.50
2022-11-16T17:39:39.842Z,99073.53
2022-11-16T17:42:43.122Z,99073.69
2022-11-16T17:45:44.925Z,99063.09
2022-11-16T17:48:47.398Z,99061.22
2022-11-16T17:51:49.313Z,99068.56
2022-11-16T17:54:51.126Z,99064.78
2022-11-16T17:57:52.972Z,99064.13
2022-11-16T18:00:54.887Z,99068.00
2022-11-16T18:03:56.842Z,99056.00
2022-11-16T18:07:00.566Z,99064.72
2022-11-16T18:10:02.513Z,99061.44
2022-11-16T18:13:04.994Z,99064.44
2022-11-16T18:16:08.717Z,99067.66
2022-11-16T18:19:14.562Z,99061.69
2022-11-16T18:22:16.399Z,99061.44
2022-11-16T18:25:18.231Z,99054.63
2022-11-16T18:28:20.032Z,99054.91
2022-11-16T18:31:22.543Z,99044.44
2022-11-16T18:34:24.617Z,99048.84
2022-11-16T18:37:26.467Z,99049.22
2022-11-16T18:40:28.965Z,99056.31
2022-11-16T18:43:30.884Z,99055.44
2022-11-16T18:46:32.896Z,99041.94
2022-11-16T18:49:34.755Z,99051.75
2022-11-16T18:52:36.562Z,99057.66
2022-11-16T18:55:38.534Z,99052.72
2022-11-16T18:58:55.863Z,99050.91
2022-11-16T19:01:57.681Z,99050.72
2022-11-16T19:04:59.478Z,99055.81
2022-11-16T19:08:01.309Z,99052.91
2022-11-16T19:11:06.587Z,99042.56
2022-11-16T19:14:08.540Z,99043.97
2022-11-16T19:17:10.409Z,99048.09
2022-11-16T19:20:12.555Z,99034.66
2022-11-16T19:23:14.377Z,99039.19
2022-11-16T19:26:17.066Z,99042.97
2022-11-16T19:29:19.069Z,99043.13
2022-11-16T19:32:20.868Z,99040.00
2022-11-16T19:35:22.740Z,99037.78
2022-11-16T19:38:24.568Z,99035.91
2022-11-16T19:41:26.851Z,99031.09
2022-11-16T19:44:31.011Z,99030.63
2022-11-16T19:47:32.832Z,99027.06
2022-11-16T19:50:35.228Z,99026.69
2022-11-16T19:53:37.494Z,99029.25
2022-11-16T19:56:39.672Z,99034.13
2022-11-16T19:59:41.461Z,99035.41
2022-11-16T20:02:43.290Z,99023.03
2022-11-16T20:05:45.069Z,99024.31
2022-11-16T20:08:50.626Z,99034.38
2022-11-16T20:11:52.450Z,99032.50
2022-11-16T20:14:54.307Z,99035.41
2022-11-16T20:17:56.103Z,99046.16
2022-11-16T20:21:07.295Z,99034.22
2022-11-16T20:24:13.330Z,99027.53
2022-11-16T20:27:15.155Z,99031.94
2022-11-16T20:30:17.006Z,99027.06
2022-11-16T20:33:19.050Z,99041.25
2022-11-16T20:36:22.917Z,99036.72
2022-11-16T20:39:24.801Z,99033.28
2022-11-16T20:42:26.664Z,99020.13
2022-11-16T20:45:28.545Z,99015.44
2022-11-16T20:48:30.367Z,99013.47
2022-11-16T20:51:32.229Z,99007.00
2022-11-16T20:54:34.166Z,99009.91
2022-11-16T20:57:36.009Z,99011.19
2022-11-16T21:00:37.836Z,99006.44
2022-11-16T21:03:39.911Z,99013.19
2022-11-16T21:06:41.753Z,99016.59
2022-11-16T21:10:02.251Z,99017.16
2022-11-16T21:13:23.174Z,99019.75
2022-11-16T21:16:25.269Z,99014.12
2022-11-16T21:19:27.142Z,99011.09
2022-11-16T21:22:32.314Z,99011.88
2022-11-16T21:25:34.792Z,99005.28
2022-11-16T21:28:36.772Z,99004.75
2022-11-16T21:31:38.593Z,98985.88
2022-11-16T21:34:40.467Z,98990.56
2022-11-16T21:37:42.294Z,98987.13
2022-11-16T21:40:44.153Z,98994.16
2022-11-16T21:43:46.062Z,98983.97
2022-11-16T21:46:47.902Z,98988.28
2022-11-16T21:50:16.954Z,98983.06
2022-11-16T21:53:11.522Z,98972.44
2022-11-16T21:56:17.229Z,98969.09
2022-11-16T21:59:19.048Z,98963.72
2022-11-16T22:02:20.873Z,98956.31
2022-11-16T22:05:41.574Z,98957.03
2022-11-16T22:08:43.363Z,98956.97
2022-11-16T22:11:45.200Z,98963.34
2022-11-16T22:14:46.986Z,98961.19
2022-11-16T22:17:48.784Z,98955.22
2022-11-16T22:20:50.605Z,98957.37
2022-11-16T22:23:52.417Z,98958.63
2022-11-16T22:26:54.288Z,98959.22
2022-11-16T22:29:56.114Z,98973.97
2022-11-16T22:32:57.968Z,98985.03
2022-11-16T22:35:59.823Z,98985.75
2022-11-16T22:39:02.151Z,98983.81
2022-11-16T22:42:04.428Z,98981.47
2022-11-16T22:45:06.402Z,98967.22
2022-11-16T22:48:08.295Z,98975.56
2022-11-16T22:51:22.318Z,98981.84
2022-11-16T22:54:28.460Z,98971.44
2022-11-16T22:57:30.680Z,98973.19
2022-11-16T23:00:37.514Z,98969.63
2022-11-16T23:03:42.690Z,98960.94
2022-11-16T23:06:44.535Z,98970.44
2022-11-16T23:09:46.331Z,98969.81
2022-11-16T23:13:06.864Z,98967.97
2022-11-16T23:16:08.798Z,98971.47
2022-11-16T23:19:30.816Z,98968.69
2022-11-16T23:22:51.152Z,98949.81
2022-11-16T23:26:11.574Z,98938.56
2022-11-16T23:29:13.375Z,98955.56
2022-11-16T23:32:15.189Z,98961.66
2022-11-16T23:35:17.221Z,98954.41
2022-11-16T23:38:19.028Z,98960.31
2022-11-16T23:41:39.654Z,98960.31
2022-11-16T23:44:41.707Z,98955.91
2022-11-16T23:47:43.495Z,98966.84
2022-11-16T23:50:45.615Z,98958.00
2022-11-16T23:53:47.428Z,98951.63
2022-11-16T23:56:49.244Z,98956.19
2022-11-16T23:59:51.060Z,98956.00
